sensor_id;sensor_type;location;lat;lon;timestamp;pressure;altitude;pressure_sealevel;temperature;humidity
78890;BME280;68279;48.964;14.502;2023-08-24T00:00:15;97283.78;;;15.24;97.56
78890;BME280;68279;48.964;14.502;2023-08-24T00:02:42;97286.97;;;15.26;97.87
78890;BME280;68279;48.964;14.502;2023-08-24T00:05:08;97286.84;;;15.32;97.89
78890;BME280;68279;48.964;14.502;2023-08-24T00:07:34;97287.56;;;15.23;97.75
78890;BME280;68279;48.964;14.502;2023-08-24T00:09:59;97287.81;;;15.13;96.41
78890;BME280;68279;48.964;14.502;2023-08-24T00:12:25;97286.81;;;15.09;98.51
78890;BME280;68279;48.964;14.502;2023-08-24T00:14:51;97291.41;;;15.09;99.05
78890;BME280;68279;48.964;14.502;2023-08-24T00:17:17;97287.03;;;14.99;98.75
78890;BME280;68279;48.964;14.502;2023-08-24T00:19:43;97283.44;;;14.90;97.22
78890;BME280;68279;48.964;14.502;2023-08-24T00:22:09;97280.47;;;14.78;98.07
78890;BME280;68279;48.964;14.502;2023-08-24T00:24:35;97281.59;;;14.77;97.54
78890;BME280;68279;48.964;14.502;2023-08-24T00:27:00;97278.69;;;14.87;100.00
78890;BME280;68279;48.964;14.502;2023-08-24T00:29:26;97282.69;;;14.76;98.48
78890;BME280;68279;48.964;14.502;2023-08-24T00:31:52;97278.69;;;14.73;97.30
78890;BME280;68279;48.964;14.502;2023-08-24T00:34:17;97279.47;;;14.73;97.84
78890;BME280;68279;48.964;14.502;2023-08-24T00:36:43;97283.25;;;14.72;98.05
78890;BME280;68279;48.964;14.502;2023-08-24T00:39:08;97282.78;;;14.70;98.96
78890;BME280;68279;48.964;14.502;2023-08-24T00:41:34;97292.13;;;14.73;99.65
78890;BME280;68279;48.964;14.502;2023-08-24T00:44:00;97287.16;;;14.66;99.44
78890;BME280;68279;48.964;14.502;2023-08-24T00:46:26;97282.50;;;14.58;99.72
78890;BME280;68279;48.964;14.502;2023-08-24T00:48:54;97282.97;;;14.60;100.00
78890;BME280;68279;48.964;14.502;2023-08-24T00:51:23;97280.59;;;14.59;99.75
78890;BME280;68279;48.964;14.502;2023-08-24T00:53:50;97280.06;;;14.57;99.65
78890;BME280;68279;48.964;14.502;2023-08-24T00:56:16;97275.78;;;14.42;98.89
78890;BME280;68279;48.964;14.502;2023-08-24T00:58:44;97278.97;;;14.44;98.92
78890;BME280;68279;48.964;14.502;2023-08-24T01:01:20;97277.28;;;14.48;99.04
78890;BME280;68279;48.964;14.502;2023-08-24T01:03:47;97285.75;;;14.41;100.00
78890;BME280;68279;48.964;14.502;2023-08-24T01:06:13;97287.22;;;14.34;100.00
78890;BME280;68279;48.964;14.502;2023-08-24T01:08:50;97289.13;;;14.33;100.00
78890;BME280;68279;48.964;14.502;2023-08-24T01:14:14;97289.31;;;14.23;100.00
78890;BME280;68279;48.964;14.502;2023-08-24T01:16:48;97285.31;;;14.21;100.00
78890;BME280;68279;48.964;14.502;2023-08-24T01:19:40;97292.09;;;14.18;100.00
78890;BME280;68279;48.964;14.502;2023-08-24T01:25:16;97287.59;;;14.13;100.00
78890;BME280;68279;48.964;14.502;2023-08-24T01:27:51;97292.09;;;14.18;100.00
78890;BME280;68279;48.964;14.502;2023-08-24T01:30:18;97292.75;;;14.10;100.00
78890;BME280;68279;48.964;14.502;2023-08-24T01:32:45;97288.44;;;13.95;100.00
78890;BME280;68279;48.964;14.502;2023-08-24T01:35:16;97289.09;;;14.06;100.00
78890;BME280;68279;48.964;14.502;2023-08-24T01:37:56;97282.13;;;14.05;100.00
78890;BME280;68279;48.964;14.502;2023-08-24T01:43:14;97277.44;;;13.78;100.00
78890;BME280;68279;48.964;14.502;2023-08-24T01:45:42;97271.38;;;13.72;100.00
78890;BME280;68279;48.964;14.502;2023-08-24T01:48:10;97272.16;;;13.73;100.00
78890;BME280;68279;48.964;14.502;2023-08-24T01:50:35;97274.19;;;13.81;100.00
78890;BME280;68279;48.964;14.502;2023-08-24T01:53:03;97276.63;;;13.77;100.00
78890;BME280;68279;48.964;14.502;2023-08-24T01:55:29;97267.78;;;13.77;100.00
78890;BME280;68279;48.964;14.502;2023-08-24T01:57:55;97265.50;;;13.84;100.00
78890;BME280;68279;48.964;14.502;2023-08-24T02:00:22;97271.38;;;13.86;100.00
78890;BME280;68279;48.964;14.502;2023-08-24T02:02:48;97266.19;;;13.76;100.00
78890;BME280;68279;48.964;14.502;2023-08-24T02:05:14;97263.59;;;13.71;100.00
78890;BME280;68279;48.964;14.502;2023-08-24T02:07:40;97261.72;;;13.71;100.00
78890;BME280;68279;48.964;14.502;2023-08-24T02:10:06;97255.72;;;13.60;100.00
78890;BME280;68279;48.964;14.502;2023-08-24T02:12:32;97255.97;;;13.59;100.00
78890;BME280;68279;48.964;14.502;2023-08-24T02:14:58;97260.13;;;13.51;100.00
78890;BME280;68279;48.964;14.502;2023-08-24T02:17:23;97259.13;;;13.47;100.00
78890;BME280;68279;48.964;14.502;2023-08-24T02:19:50;97250.63;;;13.40;100.00
78890;BME280;68279;48.964;14.502;2023-08-24T02:22:18;97254.63;;;13.43;100.00
78890;BME280;68279;48.964;14.502;2023-08-24T02:24:45;97249.63;;;13.36;100.00
78890;BME280;68279;48.964;14.502;2023-08-24T02:27:11;97257.75;;;13.31;100.00
78890;BME280;68279;48.964;14.502;2023-08-24T02:29:37;97257.75;;;13.31;100.00
78890;BME280;68279;48.964;14.502;2023-08-24T02:32:04;97251.81;;;13.34;100.00
78890;BME280;68279;48.964;14.502;2023-08-24T02:34:30;97259.28;;;13.37;100.00
78890;BME280;68279;48.964;14.502;2023-08-24T02:36:56;97257.31;;;13.24;100.00
78890;BME280;68279;48.964;14.502;2023-08-24T02:39:22;97252.03;;;13.19;100.00
78890;BME280;68279;48.964;14.502;2023-08-24T02:41:48;97257.56;;;13.27;100.00
78890;BME280;68279;48.964;14.502;2023-08-24T02:44:13;97252.19;;;13.27;100.00
78890;BME280;68279;48.964;14.502;2023-08-24T02:46:48;97255.53;;;13.19;100.00
78890;BME280;68279;48.964;14.502;2023-08-24T02:49:13;97245.56;;;13.01;100.00
78890;BME280;68279;48.964;14.502;2023-08-24T02:51:41;97252.59;;;12.97;100.00
78890;BME280;68279;48.964;14.502;2023-08-24T02:54:07;97245.91;;;12.94;100.00
78890;BME280;68279;48.964;14.502;2023-08-24T02:56:33;97252.06;;;13.14;100.00
78890;BME280;68279;48.964;14.502;2023-08-24T02:59:02;97253.34;;;13.21;100.00
78890;BME280;68279;48.964;14.502;2023-08-24T03:01:27;97244.31;;;13.12;100.00
78890;BME280;68279;48.964;14.502;2023-08-24T03:03:53;97246.66;;;13.00;100.00
78890;BME280;68279;48.964;14.502;2023-08-24T03:06:19;97249.03;;;13.01;100.00
78890;BME280;68279;48.964;14.502;2023-08-24T03:08:44;97252.72;;;13.05;100.00
78890;BME280;68279;48.964;14.502;2023-08-24T03:11:10;97256.22;;;13.06;100.00
78890;BME280;68279;48.964;14.502;2023-08-24T03:13:37;97252.22;;;13.03;100.00
78890;BME280;68279;48.964;14.502;2023-08-24T03:16:06;97255.28;;;12.97;100.00
78890;BME280;68279;48.964;14.502;2023-08-24T03:18:32;97255.34;;;12.92;100.00
78890;BME280;68279;48.964;14.502;2023-08-24T03:20:58;97252.22;;;12.85;100.00
78890;BME280;68279;48.964;14.502;2023-08-24T03:23:24;97255.75;;;12.80;100.00
78890;BME280;68279;48.964;14.502;2023-08-24T03:25:49;97255.44;;;12.63;100.00
78890;BME280;68279;48.964;14.502;2023-08-24T03:28:15;97267.63;;;12.55;100.00
78890;BME280;68279;48.964;14.502;2023-08-24T03:30:47;97268.69;;;12.54;100.00
78890;BME280;68279;48.964;14.502;2023-08-24T03:33:14;97261.31;;;12.46;100.00
78890;BME280;68279;48.964;14.502;2023-08-24T03:35:40;97263.09;;;12.51;100.00
78890;BME280;68279;48.964;14.502;2023-08-24T03:38:06;97269.09;;;12.42;100.00
78890;BME280;68279;48.964;14.502;2023-08-24T03:40:31;97274.53;;;12.37;100.00
78890;BME280;68279;48.964;14.502;2023-08-24T03:42:57;97268.94;;;12.34;100.00
78890;BME280;68279;48.964;14.502;2023-08-24T03:45:23;97261.19;;;12.32;100.00
78890;BME280;68279;48.964;14.502;2023-08-24T03:47:49;97257.91;;;12.35;100.00
78890;BME280;68279;48.964;14.502;2023-08-24T03:50:15;97266.25;;;12.34;100.00
78890;BME280;68279;48.964;14.502;2023-08-24T03:52:41;97265.97;;;12.35;100.00
78890;BME280;68279;48.964;14.502;2023-08-24T03:55:07;97266.84;;;12.31;100.00
78890;BME280;68279;48.964;14.502;2023-08-24T03:57:33;97265.06;;;12.21;100.00
78890;BME280;68279;48.964;14.502;2023-08-24T03:59:58;97273.63;;;12.23;100.00
78890;BME280;68279;48.964;14.502;2023-08-24T04:02:24;97270.13;;;12.23;100.00
78890;BME280;68279;48.964;14.502;2023-08-24T04:04:53;97275.16;;;12.29;100.00
78890;BME280;68279;48.964;14.502;2023-08-24T04:07:18;97279.84;;;12.42;100.00
78890;BME280;68279;48.964;14.502;2023-08-24T04:09:44;97284.69;;;12.40;100.00
78890;BME280;68279;48.964;14.502;2023-08-24T04:12:11;97282.59;;;12.37;100.00
78890;BME280;68279;48.964;14.502;2023-08-24T04:14:36;97279.94;;;12.32;100.00
78890;BME280;68279;48.964;14.502;2023-08-24T04:17:02;97277.91;;;12.48;100.00
78890;BME280;68279;48.964;14.502;2023-08-24T04:19:28;97287.31;;;12.45;100.00
78890;BME280;68279;48.964;14.502;2023-08-24T04:21:54;97288.34;;;12.50;100.00
78890;BME280;68279;48.964;14.502;2023-08-24T04:24:20;97289.09;;;12.55;100.00
78890;BME280;68279;48.964;14.502;2023-08-24T04:26:45;97283.19;;;12.53;100.00
78890;BME280;68279;48.964;14.502;2023-08-24T04:29:11;97290.44;;;12.53;100.00
78890;BME280;68279;48.964;14.502;2023-08-24T04:31:38;97293.31;;;12.37;100.00
78890;BME280;68279;48.964;14.502;2023-08-24T04:34:07;97291.59;;;12.46;100.00
78890;BME280;68279;48.964;14.502;2023-08-24T04:36:32;97296.59;;;12.53;100.00
78890;BME280;68279;48.964;14.502;2023-08-24T04:38:58;97289.81;;;12.61;100.00
78890;BME280;68279;48.964;14.502;2023-08-24T04:41:24;97294.56;;;12.69;100.00
78890;BME280;68279;48.964;14.502;2023-08-24T04:43:49;97298.53;;;12.71;100.00
78890;BME280;68279;48.964;14.502;2023-08-24T04:46:17;97309.69;;;12.84;100.00
78890;BME280;68279;48.964;14.502;2023-08-24T04:48:42;97302.72;;;12.83;100.00
78890;BME280;68279;48.964;14.502;2023-08-24T04:51:08;97313.16;;;12.84;100.00
78890;BME280;68279;48.964;14.502;2023-08-24T04:53:34;97317.00;;;12.97;100.00
78890;BME280;68279;48.964;14.502;2023-08-24T04:55:59;97311.25;;;13.09;100.00
78890;BME280;68279;48.964;14.502;2023-08-24T04:58:25;97314.13;;;13.36;100.00
78890;BME280;68279;48.964;14.502;2023-08-24T05:00:51;97310.63;;;13.54;100.00
78890;BME280;68279;48.964;14.502;2023-08-24T05:03:17;97308.28;;;13.67;100.00
78890;BME280;68279;48.964;14.502;2023-08-24T05:05:45;97308.09;;;13.77;100.00
78890;BME280;68279;48.964;14.502;2023-08-24T05:08:12;97306.56;;;13.89;100.00
78890;BME280;68279;48.964;14.502;2023-08-24T05:10:37;97305.22;;;14.20;100.00
78890;BME280;68279;48.964;14.502;2023-08-24T05:13:03;97309.03;;;14.18;100.00
78890;BME280;68279;48.964;14.502;2023-08-24T05:15:30;97302.47;;;14.25;100.00
78890;BME280;68279;48.964;14.502;2023-08-24T05:17:55;97304.97;;;14.35;100.00
78890;BME280;68279;48.964;14.502;2023-08-24T05:20:26;97310.09;;;14.50;100.00
78890;BME280;68279;48.964;14.502;2023-08-24T05:22:52;97308.69;;;14.66;100.00
78890;BME280;68279;48.964;14.502;2023-08-24T05:25:22;97311.09;;;14.82;100.00
78890;BME280;68279;48.964;14.502;2023-08-24T05:27:51;97306.97;;;14.98;100.00
78890;BME280;68279;48.964;14.502;2023-08-24T05:30:18;97309.34;;;15.13;100.00
78890;BME280;68279;48.964;14.502;2023-08-24T05:32:44;97308.72;;;15.30;100.00
78890;BME280;68279;48.964;14.502;2023-08-24T05:35:10;97307.69;;;15.40;100.00
78890;BME280;68279;48.964;14.502;2023-08-24T05:37:38;97310.94;;;15.50;100.00
78890;BME280;68279;48.964;14.502;2023-08-24T05:40:07;97308.50;;;15.76;100.00
78890;BME280;68279;48.964;14.502;2023-08-24T05:42:33;97311.78;;;15.96;99.50
78890;BME280;68279;48.964;14.502;2023-08-24T05:45:05;97321.09;;;16.12;99.33
78890;BME280;68279;48.964;14.502;2023-08-24T05:47:31;97321.94;;;16.21;98.95
78890;BME280;68279;48.964;14.502;2023-08-24T05:49:59;97332.25;;;16.19;97.10
78890;BME280;68279;48.964;14.502;2023-08-24T05:52:25;97332.63;;;16.26;96.26
78890;BME280;68279;48.964;14.502;2023-08-24T05:54:52;97326.66;;;16.38;95.55
78890;BME280;68279;48.964;14.502;2023-08-24T05:57:17;97318.38;;;16.43;95.11
78890;BME280;68279;48.964;14.502;2023-08-24T05:59:47;97315.88;;;16.47;94.72
78890;BME280;68279;48.964;14.502;2023-08-24T06:02:13;97324.94;;;16.51;93.33
78890;BME280;68279;48.964;14.502;2023-08-24T06:04:39;97317.63;;;16.74;92.66
78890;BME280;68279;48.964;14.502;2023-08-24T06:07:06;97318.59;;;16.86;93.08
78890;BME280;68279;48.964;14.502;2023-08-24T06:09:34;97317.34;;;16.92;93.93
78890;BME280;68279;48.964;14.502;2023-08-24T06:11:59;97316.91;;;16.99;92.75
78890;BME280;68279;48.964;14.502;2023-08-24T06:14:25;97316.63;;;17.18;90.38
78890;BME280;68279;48.964;14.502;2023-08-24T06:16:53;97316.63;;;17.26;89.76
78890;BME280;68279;48.964;14.502;2023-08-24T06:19:30;97316.97;;;17.34;89.07
78890;BME280;68279;48.964;14.502;2023-08-24T06:21:56;97316.78;;;17.47;88.27
78890;BME280;68279;48.964;14.502;2023-08-24T06:24:23;97320.63;;;17.55;86.83
78890;BME280;68279;48.964;14.502;2023-08-24T06:26:50;97315.22;;;17.81;88.42
78890;BME280;68279;48.964;14.502;2023-08-24T06:29:17;97308.53;;;18.04;86.35
78890;BME280;68279;48.964;14.502;2023-08-24T06:31:45;97318.34;;;18.18;85.14
78890;BME280;68279;48.964;14.502;2023-08-24T06:34:13;97318.19;;;18.31;84.97
78890;BME280;68279;48.964;14.502;2023-08-24T06:36:41;97313.19;;;18.42;84.66
78890;BME280;68279;48.964;14.502;2023-08-24T06:39:08;97314.94;;;18.55;83.23
78890;BME280;68279;48.964;14.502;2023-08-24T06:41:39;97314.38;;;18.71;84.42
78890;BME280;68279;48.964;14.502;2023-08-24T06:44:12;97319.94;;;18.83;83.27
78890;BME280;68279;48.964;14.502;2023-08-24T06:46:39;97319.19;;;19.24;83.49
78890;BME280;68279;48.964;14.502;2023-08-24T06:49:11;97316.63;;;19.57;80.47
78890;BME280;68279;48.964;14.502;2023-08-24T06:51:36;97316.66;;;19.69;81.18
78890;BME280;68279;48.964;14.502;2023-08-24T06:54:03;97312.13;;;19.94;78.62
78890;BME280;68279;48.964;14.502;2023-08-24T06:56:31;97313.09;;;19.77;78.85
78890;BME280;68279;48.964;14.502;2023-08-24T06:59:05;97309.09;;;19.96;77.28
78890;BME280;68279;48.964;14.502;2023-08-24T07:01:33;97315.44;;;20.33;76.84
78890;BME280;68279;48.964;14.502;2023-08-24T07:04:01;97313.47;;;20.79;76.10
78890;BME280;68279;48.964;14.502;2023-08-24T07:06:35;97315.97;;;20.96;71.19
78890;BME280;68279;48.964;14.502;2023-08-24T07:09:32;97317.13;;;20.95;72.09
78890;BME280;68279;48.964;14.502;2023-08-24T07:11:58;97317.69;;;20.88;70.48
78890;BME280;68279;48.964;14.502;2023-08-24T07:14:28;97321.41;;;20.96;70.05
78890;BME280;68279;48.964;14.502;2023-08-24T07:17:06;97304.50;;;21.27;69.74
78890;BME280;68279;48.964;14.502;2023-08-24T07:19:33;97297.72;;;21.21;68.81
78890;BME280;68279;48.964;14.502;2023-08-24T07:21:59;97298.75;;;21.04;69.36
78890;BME280;68279;48.964;14.502;2023-08-24T07:24:30;97295.56;;;21.27;68.06
78890;BME280;68279;48.964;14.502;2023-08-24T07:29:27;97297.38;;;21.75;67.03
78890;BME280;68279;48.964;14.502;2023-08-24T07:31:54;97293.38;;;22.13;65.72
78890;BME280;68279;48.964;14.502;2023-08-24T07:34:20;97294.50;;;22.12;68.33
78890;BME280;68279;48.964;14.502;2023-08-24T07:36:48;97297.44;;;22.50;65.55
78890;BME280;68279;48.964;14.502;2023-08-24T07:39:14;97290.06;;;22.67;65.05
78890;BME280;68279;48.964;14.502;2023-08-24T07:41:41;97301.03;;;22.70;63.95
78890;BME280;68279;48.964;14.502;2023-08-24T07:44:11;97294.13;;;22.73;65.47
78890;BME280;68279;48.964;14.502;2023-08-24T07:46:42;97294.38;;;22.83;61.82
78890;BME280;68279;48.964;14.502;2023-08-24T07:49:09;97301.16;;;22.74;63.52
78890;BME280;68279;48.964;14.502;2023-08-24T07:51:40;97302.28;;;23.04;63.37
78890;BME280;68279;48.964;14.502;2023-08-24T07:54:07;97310.34;;;23.32;61.18
78890;BME280;68279;48.964;14.502;2023-08-24T07:56:42;97308.78;;;22.84;62.50
78890;BME280;68279;48.964;14.502;2023-08-24T07:59:26;97303.06;;;23.05;62.38
78890;BME280;68279;48.964;14.502;2023-08-24T08:01:54;97303.94;;;23.25;61.93
78890;BME280;68279;48.964;14.502;2023-08-24T08:04:21;97303.28;;;23.31;61.10
78890;BME280;68279;48.964;14.502;2023-08-24T08:06:49;97306.06;;;23.51;62.48
78890;BME280;68279;48.964;14.502;2023-08-24T08:09:16;97304.66;;;23.41;61.51
78890;BME280;68279;48.964;14.502;2023-08-24T08:11:44;97307.81;;;23.78;61.80
78890;BME280;68279;48.964;14.502;2023-08-24T08:14:10;97306.38;;;24.04;59.21
78890;BME280;68279;48.964;14.502;2023-08-24T08:16:39;97305.00;;;24.13;58.02
78890;BME280;68279;48.964;14.502;2023-08-24T08:19:10;97301.81;;;24.11;59.43
78890;BME280;68279;48.964;14.502;2023-08-24T08:21:53;97293.84;;;24.22;57.31
78890;BME280;68279;48.964;14.502;2023-08-24T08:24:20;97290.97;;;24.15;56.51
78890;BME280;68279;48.964;14.502;2023-08-24T08:26:51;97289.97;;;24.04;57.31
78890;BME280;68279;48.964;14.502;2023-08-24T08:29:16;97289.44;;;24.17;58.32
78890;BME280;68279;48.964;14.502;2023-08-24T08:31:42;97288.81;;;24.47;57.77
78890;BME280;68279;48.964;14.502;2023-08-24T08:34:13;97287.81;;;24.81;57.98
78890;BME280;68279;48.964;14.502;2023-08-24T08:36:44;97274.34;;;24.92;55.88
78890;BME280;68279;48.964;14.502;2023-08-24T08:39:17;97287.78;;;24.55;55.99
78890;BME280;68279;48.964;14.502;2023-08-24T08:41:45;97276.97;;;24.85;54.92
78890;BME280;68279;48.964;14.502;2023-08-24T08:44:13;97288.41;;;24.45;56.01
78890;BME280;68279;48.964;14.502;2023-08-24T08:46:43;97278.53;;;24.63;56.47
78890;BME280;68279;48.964;14.502;2023-08-24T08:49:09;97281.84;;;24.99;55.99
78890;BME280;68279;48.964;14.502;2023-08-24T08:51:39;97283.16;;;25.05;56.32
78890;BME280;68279;48.964;14.502;2023-08-24T08:54:05;97277.03;;;25.15;53.74
78890;BME280;68279;48.964;14.502;2023-08-24T08:56:32;97283.06;;;25.01;53.85
78890;BME280;68279;48.964;14.502;2023-08-24T08:59:00;97280.56;;;25.16;54.33
78890;BME280;68279;48.964;14.502;2023-08-24T09:01:32;97277.19;;;25.26;53.82
78890;BME280;68279;48.964;14.502;2023-08-24T09:04:05;97272.97;;;25.05;52.74
78890;BME280;68279;48.964;14.502;2023-08-24T09:06:33;97284.09;;;25.16;54.72
78890;BME280;68279;48.964;14.502;2023-08-24T09:09:01;97276.78;;;25.54;52.98
78890;BME280;68279;48.964;14.502;2023-08-24T09:11:26;97282.22;;;25.80;50.24
78890;BME280;68279;48.964;14.502;2023-08-24T09:13:52;97280.53;;;26.06;50.73
78890;BME280;68279;48.964;14.502;2023-08-24T09:16:19;97272.38;;;26.09;48.88
78890;BME280;68279;48.964;14.502;2023-08-24T09:18:47;97266.19;;;25.82;47.00
78890;BME280;68279;48.964;14.502;2023-08-24T09:21:18;97270.56;;;26.24;51.74
78890;BME280;68279;48.964;14.502;2023-08-24T09:23:46;97263.34;;;26.46;48.56
78890;BME280;68279;48.964;14.502;2023-08-24T09:26:27;97264.97;;;26.50;48.73
78890;BME280;68279;48.964;14.502;2023-08-24T09:29:24;97249.56;;;26.87;46.92
78890;BME280;68279;48.964;14.502;2023-08-24T09:31:55;97244.81;;;26.83;47.35
78890;BME280;68279;48.964;14.502;2023-08-24T09:34:24;97238.63;;;26.42;47.24
78890;BME280;68279;48.964;14.502;2023-08-24T09:36:51;97231.59;;;26.45;46.73
78890;BME280;68279;48.964;14.502;2023-08-24T09:39:18;97234.25;;;26.86;48.30
78890;BME280;68279;48.964;14.502;2023-08-24T09:41:49;97226.69;;;27.27;46.03
78890;BME280;68279;48.964;14.502;2023-08-24T09:44:17;97228.00;;;27.61;45.45
78890;BME280;68279;48.964;14.502;2023-08-24T09:46:43;97224.19;;;27.91;45.59
78890;BME280;68279;48.964;14.502;2023-08-24T09:49:11;97221.16;;;28.32;45.84
78890;BME280;68279;48.964;14.502;2023-08-24T09:51:39;97226.63;;;28.85;46.47
78890;BME280;68279;48.964;14.502;2023-08-24T09:54:07;97222.34;;;28.45;41.97
78890;BME280;68279;48.964;14.502;2023-08-24T09:56:39;97224.69;;;28.36;42.40
78890;BME280;68279;48.964;14.502;2023-08-24T09:59:13;97220.75;;;28.33;42.87
78890;BME280;68279;48.964;14.502;2023-08-24T10:01:46;97210.50;;;29.09;44.07
78890;BME280;68279;48.964;14.502;2023-08-24T10:04:18;97201.34;;;29.33;41.93
78890;BME280;68279;48.964;14.502;2023-08-24T10:06:49;97195.75;;;29.65;42.08
78890;BME280;68279;48.964;14.502;2023-08-24T10:09:27;97200.66;;;29.11;42.80
78890;BME280;68279;48.964;14.502;2023-08-24T10:12:02;97197.88;;;29.25;43.81
78890;BME280;68279;48.964;14.502;2023-08-24T10:14:39;97200.28;;;29.09;41.11
78890;BME280;68279;48.964;14.502;2023-08-24T10:17:08;97199.50;;;28.76;43.12
78890;BME280;68279;48.964;14.502;2023-08-24T10:19:36;97197.56;;;28.73;44.42
78890;BME280;68279;48.964;14.502;2023-08-24T10:22:05;97193.25;;;28.72;40.71
78890;BME280;68279;48.964;14.502;2023-08-24T10:24:33;97180.22;;;28.94;43.42
78890;BME280;68279;48.964;14.502;2023-08-24T10:27:03;97180.03;;;29.55;42.02
78890;BME280;68279;48.964;14.502;2023-08-24T10:29:35;97177.78;;;29.25;39.60
78890;BME280;68279;48.964;14.502;2023-08-24T10:32:01;97173.81;;;29.29;43.65
78890;BME280;68279;48.964;14.502;2023-08-24T10:34:31;97183.75;;;29.97;42.01
78890;BME280;68279;48.964;14.502;2023-08-24T10:37:16;97176.91;;;29.53;41.73
78890;BME280;68279;48.964;14.502;2023-08-24T10:39:45;97184.00;;;29.47;40.34
78890;BME280;68279;48.964;14.502;2023-08-24T10:42:17;97170.69;;;29.27;38.57
78890;BME280;68279;48.964;14.502;2023-08-24T10:44:47;97174.16;;;29.49;39.96
78890;BME280;68279;48.964;14.502;2023-08-24T10:47:22;97177.00;;;29.24;39.07
78890;BME280;68279;48.964;14.502;2023-08-24T10:50:06;97179.75;;;29.21;38.51
78890;BME280;68279;48.964;14.502;2023-08-24T10:52:38;97173.38;;;29.42;37.81
78890;BME280;68279;48.964;14.502;2023-08-24T10:55:27;97173.44;;;29.34;38.63
78890;BME280;68279;48.964;14.502;2023-08-24T10:57:57;97168.66;;;29.49;39.48
78890;BME280;68279;48.964;14.502;2023-08-24T11:00:39;97162.69;;;30.24;38.11
78890;BME280;68279;48.964;14.502;2023-08-24T11:03:30;97162.16;;;30.85;36.73
78890;BME280;68279;48.964;14.502;2023-08-24T11:06:17;97148.09;;;31.06;38.04
78890;BME280;68279;48.964;14.502;2023-08-24T11:08:48;97148.06;;;31.44;34.18
78890;BME280;68279;48.964;14.502;2023-08-24T11:17:17;97128.13;;;31.29;33.07
78890;BME280;68279;48.964;14.502;2023-08-24T11:19:50;97132.53;;;31.53;30.76
78890;BME280;68279;48.964;14.502;2023-08-24T11:22:18;97130.84;;;31.33;33.51
78890;BME280;68279;48.964;14.502;2023-08-24T11:24:45;97119.63;;;31.13;33.93
78890;BME280;68279;48.964;14.502;2023-08-24T11:27:11;97118.69;;;30.51;30.84
78890;BME280;68279;48.964;14.502;2023-08-24T11:29:39;97113.34;;;31.09;31.20
78890;BME280;68279;48.964;14.502;2023-08-24T11:32:07;97112.53;;;31.42;31.28
78890;BME280;68279;48.964;14.502;2023-08-24T11:34:36;97115.81;;;31.34;29.20
78890;BME280;68279;48.964;14.502;2023-08-24T11:37:02;97116.63;;;31.92;30.88
78890;BME280;68279;48.964;14.502;2023-08-24T11:39:30;97109.63;;;31.83;28.57
78890;BME280;68279;48.964;14.502;2023-08-24T11:42:06;97113.44;;;31.63;26.23
78890;BME280;68279;48.964;14.502;2023-08-24T11:44:49;97104.50;;;31.55;27.91
78890;BME280;68279;48.964;14.502;2023-08-24T11:47:15;97104.00;;;31.60;33.32
78890;BME280;68279;48.964;14.502;2023-08-24T11:49:42;97102.88;;;31.84;25.27
78890;BME280;68279;48.964;14.502;2023-08-24T11:52:08;97097.09;;;31.45;25.42
78890;BME280;68279;48.964;14.502;2023-08-24T11:54:38;97100.47;;;31.60;24.53
78890;BME280;68279;48.964;14.502;2023-08-24T11:57:14;97082.81;;;32.04;26.93
78890;BME280;68279;48.964;14.502;2023-08-24T11:59:40;97083.38;;;32.19;26.08
78890;BME280;68279;48.964;14.502;2023-08-24T12:02:05;97077.00;;;31.98;24.95
78890;BME280;68279;48.964;14.502;2023-08-24T12:04:38;97070.22;;;31.76;25.94
78890;BME280;68279;48.964;14.502;2023-08-24T12:07:12;97065.38;;;32.74;29.97
78890;BME280;68279;48.964;14.502;2023-08-24T12:09:47;97061.78;;;32.96;29.83
78890;BME280;68279;48.964;14.502;2023-08-24T12:12:19;97060.03;;;32.83;29.52
78890;BME280;68279;48.964;14.502;2023-08-24T12:14:49;97057.03;;;33.33;32.48
78890;BME280;68279;48.964;14.502;2023-08-24T12:17:17;97065.06;;;33.28;29.50
78890;BME280;68279;48.964;14.502;2023-08-24T12:19:59;97052.03;;;33.08;28.29
78890;BME280;68279;48.964;14.502;2023-08-24T12:22:25;97049.63;;;33.27;25.76
78890;BME280;68279;48.964;14.502;2023-08-24T12:24:51;97040.41;;;33.33;27.75
78890;BME280;68279;48.964;14.502;2023-08-24T12:27:21;97042.75;;;32.35;26.08
78890;BME280;68279;48.964;14.502;2023-08-24T12:30:13;97032.53;;;33.12;31.57
78890;BME280;68279;48.964;14.502;2023-08-24T12:32:48;97015.31;;;33.40;31.14
78890;BME280;68279;48.964;14.502;2023-08-24T12:35:20;97005.34;;;33.59;28.85
78890;BME280;68279;48.964;14.502;2023-08-24T12:37:46;97009.75;;;33.57;28.81
78890;BME280;68279;48.964;14.502;2023-08-24T12:40:12;97000.22;;;33.74;31.82
78890;BME280;68279;48.964;14.502;2023-08-24T12:42:45;96995.97;;;33.86;27.38
78890;BME280;68279;48.964;14.502;2023-08-24T12:45:11;96989.66;;;33.69;28.97
78890;BME280;68279;48.964;14.502;2023-08-24T12:47:39;96994.16;;;33.63;27.54
78890;BME280;68279;48.964;14.502;2023-08-24T12:50:06;96988.38;;;34.19;29.32
78890;BME280;68279;48.964;14.502;2023-08-24T12:52:33;96980.28;;;34.41;27.53
78890;BME280;68279;48.964;14.502;2023-08-24T12:55:01;96979.50;;;33.78;30.31
78890;BME280;68279;48.964;14.502;2023-08-24T12:57:29;96977.22;;;34.51;28.85
78890;BME280;68279;48.964;14.502;2023-08-24T12:59:56;96965.03;;;34.32;26.29
78890;BME280;68279;48.964;14.502;2023-08-24T13:02:28;96966.53;;;34.21;28.72
78890;BME280;68279;48.964;14.502;2023-08-24T13:04:54;96966.69;;;34.59;29.33
78890;BME280;68279;48.964;14.502;2023-08-24T13:07:21;96965.19;;;34.83;25.20
78890;BME280;68279;48.964;14.502;2023-08-24T13:09:46;96969.84;;;34.74;25.28